createdAt,value
2018-05-27T00:01:32.369Z,15.72
2018-05-27T00:03:59.835Z,15.74
2018-05-27T00:06:27.374Z,15.62
2018-05-27T00:08:54.866Z,15.51
2018-05-27T00:11:22.481Z,15.39
2018-05-27T00:13:50.104Z,15.36
2018-05-27T00:16:17.538Z,15.35
2018-05-27T00:18:45.257Z,15.34
2018-05-27T00:21:12.955Z,15.29
2018-05-27T00:23:40.493Z,15.30
2018-05-27T00:26:08.898Z,15.13
2018-05-27T00:28:36.401Z,15.12
2018-05-27T00:31:03.923Z,15.13
2018-05-27T00:33:31.035Z,15.12
2018-05-27T00:35:58.616Z,15.13
2018-05-27T00:38:26.151Z,15.14
2018-05-27T00:40:53.989Z,15.14
2018-05-27T00:43:21.829Z,15.09
2018-05-27T00:45:49.589Z,15.07
2018-05-27T00:48:17.310Z,15.00
2018-05-27T00:50:44.840Z,15.00
2018-05-27T00:53:15.033Z,14.97
2018-05-27T00:55:42.654Z,14.92
2018-05-27T00:58:10.111Z,14.85
2018-05-27T01:00:37.808Z,14.87
2018-05-27T01:03:05.592Z,14.83
2018-05-27T01:05:33.228Z,14.85
2018-05-27T01:08:00.918Z,14.84
2018-05-27T01:10:28.473Z,14.79
2018-05-27T01:12:56.581Z,14.80
2018-05-27T01:15:24.640Z,14.82
2018-05-27T01:17:52.103Z,14.88
2018-05-27T01:20:19.685Z,14.85
2018-05-27T01:22:47.512Z,14.80
2018-05-27T01:25:15.255Z,14.80
2018-05-27T01:27:42.920Z,14.78
2018-05-27T01:30:10.556Z,14.75
2018-05-27T01:32:38.007Z,14.74
2018-05-27T01:35:05.706Z,14.74
2018-05-27T01:37:33.225Z,14.75
2018-05-27T01:40:00.913Z,14.82
2018-05-27T01:42:28.552Z,14.82
2018-05-27T01:44:56.307Z,14.80
2018-05-27T01:47:23.946Z,14.81
2018-05-27T01:49:51.608Z,14.78
2018-05-27T01:52:19.215Z,14.83
2018-05-27T01:54:47.671Z,14.83
2018-05-27T01:57:16.152Z,14.90
2018-05-27T01:59:43.719Z,14.89
2018-05-27T02:02:11.262Z,14.78
2018-05-27T02:04:39.364Z,14.73
2018-05-27T02:07:07.108Z,14.67
2018-05-27T02:09:34.572Z,14.73
2018-05-27T02:12:02.036Z,14.73
2018-05-27T02:14:30.513Z,14.70
2018-05-27T02:16:58.407Z,14.69
2018-05-27T02:19:26.022Z,14.71
2018-05-27T02:21:53.548Z,14.70
2018-05-27T02:24:21.127Z,14.73
2018-05-27T02:26:49.152Z,14.74
2018-05-27T02:29:16.592Z,14.73
2018-05-27T02:31:44.138Z,14.75
2018-05-27T02:34:11.801Z,14.74
2018-05-27T02:36:40.362Z,14.78
2018-05-27T02:39:07.844Z,14.82
2018-05-27T02:41:35.619Z,14.86
2018-05-27T02:44:03.378Z,14.87
2018-05-27T02:46:30.892Z,14.83
2018-05-27T02:48:58.456Z,14.80
2018-05-27T02:51:26.048Z,14.80
2018-05-27T02:53:53.628Z,14.76
2018-05-27T02:56:21.153Z,14.82
2018-05-27T02:58:48.722Z,14.85
2018-05-27T03:01:16.171Z,14.84
2018-05-27T03:03:43.697Z,14.82
2018-05-27T03:06:11.257Z,14.75
2018-05-27T03:08:38.768Z,14.72
2018-05-27T03:11:06.227Z,14.70
2018-05-27T03:13:33.778Z,14.67
2018-05-27T03:16:01.309Z,14.65
2018-05-27T03:18:28.998Z,14.65
2018-05-27T03:20:56.461Z,14.63
2018-05-27T03:23:24.027Z,14.64
2018-05-27T03:25:51.489Z,14.66
2018-05-27T03:28:18.972Z,14.68
2018-05-27T03:30:46.606Z,14.75
2018-05-27T03:33:14.245Z,14.78
2018-05-27T03:35:41.872Z,14.87
2018-05-27T03:38:09.632Z,14.97
2018-05-27T03:40:37.292Z,14.98
2018-05-27T03:43:04.878Z,15.03
2018-05-27T03:45:32.557Z,15.05
2018-05-27T03:48:00.097Z,15.07
2018-05-27T03:50:27.717Z,15.09
2018-05-27T03:52:55.607Z,15.11
2018-05-27T03:55:23.188Z,15.13
2018-05-27T03:57:50.787Z,15.18
2018-05-27T04:00:18.367Z,15.28
2018-05-27T04:02:46.273Z,15.34
2018-05-27T04:08:29.847Z,15.48
2018-05-27T04:10:57.912Z,15.42
2018-05-27T04:13:25.373Z,15.46
2018-05-27T04:15:53.008Z,15.51
2018-05-27T04:18:20.490Z,15.55
2018-05-27T04:20:48.048Z,15.58
2018-05-27T04:23:15.652Z,15.60
2018-05-27T04:25:43.283Z,15.66
2018-05-27T04:28:10.769Z,15.59
2018-05-27T04:30:38.227Z,15.66
2018-05-27T04:33:05.823Z,15.71
2018-05-27T04:35:33.594Z,15.73
2018-05-27T04:38:01.119Z,15.70
2018-05-27T04:40:29.093Z,15.68
2018-05-27T04:42:56.684Z,15.68
2018-05-27T04:45:24.191Z,15.72
2018-05-27T04:47:51.738Z,15.74
2018-05-27T04:50:19.509Z,15.74
2018-05-27T04:52:47.166Z,15.79
2018-05-27T04:55:14.746Z,15.79
2018-05-27T04:57:42.202Z,15.90
2018-05-27T05:00:09.718Z,15.96
2018-05-27T05:02:38.532Z,16.07
2018-05-27T05:05:06.012Z,16.11
2018-05-27T05:07:33.487Z,16.16
2018-05-27T05:10:01.088Z,16.31
2018-05-27T05:12:28.598Z,16.45
2018-05-27T05:14:56.095Z,16.61
2018-05-27T05:17:23.699Z,16.70
2018-05-27T05:19:52.096Z,16.80
2018-05-27T05:22:19.758Z,16.93
2018-05-27T05:24:47.362Z,17.04
2018-05-27T05:27:14.854Z,17.21
2018-05-27T05:29:42.482Z,17.41
2018-05-27T05:32:10.624Z,17.70
2018-05-27T05:34:38.077Z,17.95
2018-05-27T05:37:05.795Z,18.24
2018-05-27T05:39:33.374Z,18.62
2018-05-27T05:42:00.970Z,18.75
2018-05-27T05:44:28.769Z,19.21
2018-05-27T05:46:56.340Z,19.68
2018-05-27T05:49:24.496Z,20.28
2018-05-27T05:51:51.955Z,20.72
2018-05-27T05:54:19.524Z,21.23
2018-05-27T05:56:47.102Z,21.89
2018-05-27T05:59:14.627Z,22.28
2018-05-27T06:01:42.048Z,21.86
2018-05-27T06:04:09.499Z,22.24
2018-05-27T06:06:37.152Z,22.20
2018-05-27T06:09:04.805Z,22.41
2018-05-27T06:11:32.620Z,22.42
2018-05-27T06:14:00.260Z,21.77
2018-05-27T06:16:28.480Z,21.99
2018-05-27T06:18:55.998Z,22.18
2018-05-27T06:21:23.526Z,22.24
2018-05-27T06:23:51.120Z,22.67
2018-05-27T06:26:18.704Z,22.92
2018-05-27T06:28:46.858Z,22.89
2018-05-27T06:31:14.470Z,23.36
2018-05-27T06:33:42.239Z,23.61
2018-05-27T06:36:09.783Z,23.04
2018-05-27T06:38:37.264Z,23.60
2018-05-27T06:41:04.739Z,24.19
2018-05-27T06:43:32.438Z,24.47
2018-05-27T06:46:00.508Z,24.76
2018-05-27T06:48:28.029Z,24.55
2018-05-27T06:50:55.544Z,25.82
2018-05-27T06:53:23.200Z,26.75
2018-05-27T06:55:51.016Z,27.74
2018-05-27T06:58:18.474Z,28.36
2018-05-27T07:00:46.150Z,28.36
2018-05-27T07:03:14.239Z,29.16
2018-05-27T07:05:41.764Z,28.89
2018-05-27T07:08:09.771Z,30.86
2018-05-27T07:10:37.359Z,30.51
2018-05-27T07:13:05.056Z,30.40
2018-05-27T07:15:32.663Z,30.88
2018-05-27T07:18:00.669Z,32.46
2018-05-27T07:20:29.540Z,32.96
2018-05-27T07:22:57.174Z,32.82
2018-05-27T07:25:24.895Z,32.85
2018-05-27T07:27:52.421Z,32.08
2018-05-27T07:30:20.277Z,31.37
2018-05-27T07:32:48.355Z,30.82
2018-05-27T07:35:16.120Z,31.45
2018-05-27T07:37:43.674Z,32.26
2018-05-27T07:40:11.183Z,32.21
2018-05-27T07:42:38.824Z,32.97
2018-05-27T07:45:06.307Z,33.13
2018-05-27T07:47:33.875Z,32.66
2018-05-27T07:50:01.341Z,32.26
2018-05-27T07:52:28.805Z,34.01
2018-05-27T07:54:56.564Z,34.00
2018-05-27T07:57:24.194Z,34.31
2018-05-27T07:59:51.678Z,34.04
2018-05-27T08:02:19.182Z,34.62
2018-05-27T08:04:47.070Z,33.45
2018-05-27T08:07:14.622Z,33.35
2018-05-27T08:09:42.141Z,33.91
2018-05-27T08:12:09.659Z,34.01
2018-05-27T08:14:37.134Z,35.26
2018-05-27T08:17:04.605Z,34.44
2018-05-27T08:19:32.320Z,34.86
2018-05-27T08:21:59.830Z,34.83
2018-05-27T08:24:28.015Z,35.19
2018-05-27T08:26:55.574Z,35.33
2018-05-27T08:29:23.067Z,36.45
2018-05-27T08:31:51.622Z,36.02
2018-05-27T08:34:19.200Z,37.53
2018-05-27T08:36:46.739Z,37.90
2018-05-27T08:39:14.239Z,36.66
2018-05-27T08:41:41.743Z,35.02
2018-05-27T08:44:09.279Z,35.31
2018-05-27T08:46:36.762Z,35.62
2018-05-27T08:49:04.410Z,35.55
2018-05-27T08:51:32.078Z,34.87
2018-05-27T08:53:59.794Z,36.27
2018-05-27T08:56:27.596Z,34.47
2018-05-27T08:58:55.053Z,35.22
2018-05-27T09:01:22.755Z,33.94
2018-05-27T09:03:50.299Z,33.91
2018-05-27T09:06:18.429Z,35.68
2018-05-27T09:08:45.951Z,36.55
2018-05-27T09:11:13.608Z,36.52
2018-05-27T09:13:41.264Z,35.94
2018-05-27T09:16:09.604Z,35.54
2018-05-27T09:18:37.156Z,35.67
2018-05-27T09:21:04.931Z,34.80
2018-05-27T09:23:32.596Z,34.85
2018-05-27T09:26:00.091Z,35.04
2018-05-27T09:28:27.649Z,36.02
2018-05-27T09:30:55.254Z,37.17
2018-05-27T09:33:22.930Z,35.99
2018-05-27T09:35:50.584Z,35.28
2018-05-27T09:38:18.595Z,35.05
2018-05-27T09:40:46.031Z,35.69
2018-05-27T09:43:13.524Z,35.76
2018-05-27T09:45:41.045Z,35.38
2018-05-27T09:48:08.761Z,34.75
2018-05-27T09:50:37.126Z,35.17
2018-05-27T09:53:04.615Z,35.72
2018-05-27T09:55:32.321Z,38.21
2018-05-27T09:57:59.955Z,40.12
2018-05-27T10:00:27.925Z,38.75
2018-05-27T10:02:55.504Z,38.58
2018-05-27T10:05:23.480Z,38.72
2018-05-27T10:07:51.062Z,39.63
2018-05-27T10:10:18.766Z,41.21
2018-05-27T10:12:47.347Z,42.14
2018-05-27T10:15:15.621Z,41.80
2018-05-27T10:17:43.332Z,42.10
2018-05-27T10:20:11.099Z,42.18
2018-05-27T10:22:38.584Z,42.90
2018-05-27T10:25:06.089Z,42.28
2018-05-27T10:27:33.700Z,43.97
2018-05-27T10:30:01.234Z,42.83
2018-05-27T10:32:30.555Z,43.60
2018-05-27T10:34:58.376Z,45.10
2018-05-27T10:37:26.012Z,43.69
2018-05-27T10:39:54.155Z,46.65
2018-05-27T10:42:21.810Z,45.42
2018-05-27T10:44:49.465Z,44.47
2018-05-27T10:47:17.231Z,41.86
2018-05-27T10:49:44.740Z,44.39
2018-05-27T10:52:12.398Z,46.71
2018-05-27T10:54:39.874Z,47.52
2018-05-27T10:57:08.155Z,45.35
2018-05-27T10:59:36.150Z,46.59
2018-05-27T11:02:03.765Z,46.55
2018-05-27T11:04:31.557Z,47.16
2018-05-27T11:06:59.056Z,47.29
2018-05-27T11:09:26.552Z,46.97
2018-05-27T11:11:54.036Z,47.53
2018-05-27T11:14:21.725Z,46.77
2018-05-27T11:16:49.436Z,45.41
2018-05-27T11:19:17.007Z,44.89
2018-05-27T11:21:44.619Z,44.09
2018-05-27T11:24:12.146Z,45.36
2018-05-27T11:26:39.702Z,46.36
2018-05-27T11:29:07.250Z,47.95
2018-05-27T11:31:34.886Z,48.87
2018-05-27T11:34:03.195Z,47.56
2018-05-27T11:36:31.256Z,48.37
2018-05-27T11:38:58.914Z,48.53
2018-05-27T11:41:26.451Z,46.28
2018-05-27T11:43:54.021Z,46.37
2018-05-27T11:46:22.101Z,46.40
2018-05-27T11:48:49.597Z,46.32
2018-05-27T11:51:17.440Z,47.88
2018-05-27T11:53:44.991Z,46.52
2018-05-27T11:56:12.461Z,47.73
2018-05-27T11:58:39.925Z,45.37
2018-05-27T12:01:07.545Z,45.79
2018-05-27T12:03:35.126Z,46.57
2018-05-27T12:06:02.720Z,45.60
2018-05-27T12:08:30.455Z,46.59
2018-05-27T12:10:58.118Z,46.28
2018-05-27T12:13:25.680Z,45.12
2018-05-27T12:15:53.288Z,44.64
2018-05-27T12:18:21.718Z,44.68
2018-05-27T12:20:49.248Z,41.13
2018-05-27T12:23:16.930Z,42.41
2018-05-27T12:25:44.464Z,42.76
2018-05-27T12:28:12.186Z,43.00
2018-05-27T12:30:39.808Z,41.33
2018-05-27T12:33:07.332Z,41.56
2018-05-27T12:35:35.341Z,42.33
2018-05-27T12:38:02.847Z,41.76
2018-05-27T12:40:30.390Z,41.18
2018-05-27T12:42:57.866Z,41.11
2018-05-27T12:45:25.426Z,40.51
2018-05-27T12:47:52.891Z,41.16
2018-05-27T12:50:20.970Z,41.61
2018-05-27T12:52:48.432Z,40.70
2018-05-27T12:55:15.935Z,39.84
2018-05-27T12:57:43.411Z,39.44
2018-05-27T13:00:11.091Z,38.91
2018-05-27T13:02:38.621Z,38.98
2018-05-27T13:05:06.192Z,38.80
2018-05-27T13:07:34.360Z,38.94
2018-05-27T13:10:02.885Z,39.02
2018-05-27T13:12:30.390Z,38.50
2018-05-27T13:14:57.890Z,38.35
2018-05-27T13:17:25.421Z,38.08
2018-05-27T13:19:52.963Z,37.90
2018-05-27T13:22:20.428Z,37.20
2018-05-27T13:24:47.956Z,36.39
2018-05-27T13:27:15.696Z,36.05
2018-05-27T13:29:43.348Z,35.97
2018-05-27T13:32:11.302Z,35.85
2018-05-27T13:34:38.898Z,35.54
2018-05-27T13:37:06.983Z,35.10
2018-05-27T13:39:34.445Z,34.85
2018-05-27T13:42:02.218Z,34.79
2018-05-27T13:44:29.912Z,34.72
2018-05-27T13:46:58.492Z,34.57
2018-05-27T13:49:26.189Z,34.45
2018-05-27T13:51:53.681Z,34.11
2018-05-27T13:54:21.178Z,34.15
2018-05-27T13:56:48.907Z,33.82
2018-05-27T13:59:16.407Z,33.69
2018-05-27T14:01:44.163Z,33.65
2018-05-27T14:04:11.742Z,33.45
2018-05-27T14:06:40.139Z,33.48
2018-05-27T14:09:07.832Z,33.44
2018-05-27T14:11:35.572Z,33.35
2018-05-27T14:14:03.759Z,33.04
2018-05-27T14:16:31.288Z,33.13
2018-05-27T14:18:58.878Z,33.06
2018-05-27T14:21:26.493Z,32.84
2018-05-27T14:23:53.957Z,32.62
2018-05-27T14:26:21.592Z,32.43
2018-05-27T14:28:49.482Z,32.19
2018-05-27T14:31:16.990Z,31.97
2018-05-27T14:33:45.562Z,31.71
2018-05-27T14:36:13.026Z,31.47
2018-05-27T14:38:40.497Z,31.32
2018-05-27T14:41:08.022Z,31.24
2018-05-27T14:43:35.516Z,31.08
2018-05-27T14:46:03.233Z,30.93
2018-05-27T14:48:30.787Z,30.82
2018-05-27T14:50:58.383Z,30.71
2018-05-27T14:53:25.918Z,30.55
2018-05-27T14:55:53.472Z,30.63
2018-05-27T14:58:21.109Z,30.74
2018-05-27T15:00:48.846Z,30.76
2018-05-27T15:03:16.708Z,31.03
2018-05-27T15:05:44.289Z,31.04
2018-05-27T15:08:12.513Z,31.02
2018-05-27T15:10:40.007Z,31.13
2018-05-27T15:13:07.578Z,31.19
2018-05-27T15:15:35.083Z,31.23
2018-05-27T15:18:02.857Z,31.00
2018-05-27T15:20:30.415Z,31.04
2018-05-27T15:22:57.996Z,31.17
2018-05-27T15:25:25.551Z,31.00
2018-05-27T15:27:53.106Z,31.04
2018-05-27T15:30:20.663Z,30.96
2018-05-27T15:32:48.404Z,30.91
2018-05-27T15:35:16.027Z,30.39
2018-05-27T15:37:43.592Z,30.33
2018-05-27T15:40:11.108Z,30.37
2018-05-27T15:42:38.799Z,30.55
2018-05-27T15:45:06.673Z,30.45
2018-05-27T15:47:34.755Z,30.52
2018-05-27T15:50:02.204Z,30.75
2018-05-27T15:52:29.769Z,30.70
2018-05-27T15:54:57.366Z,30.78
2018-05-27T15:57:24.857Z,30.86
2018-05-27T15:59:52.402Z,30.95
2018-05-27T16:02:20.888Z,30.88
2018-05-27T16:04:48.486Z,31.06
2018-05-27T16:07:15.992Z,31.11
2018-05-27T16:09:44.148Z,30.98
2018-05-27T16:12:11.623Z,30.95
2018-05-27T16:14:39.104Z,30.75
2018-05-27T16:17:06.799Z,30.64
2018-05-27T16:19:34.415Z,30.54
2018-05-27T16:22:01.875Z,30.40
2018-05-27T16:24:29.432Z,30.40
2018-05-27T16:26:57.175Z,30.16
2018-05-27T16:29:24.862Z,30.13
2018-05-27T16:31:52.423Z,29.94
2018-05-27T16:34:19.908Z,29.98
2018-05-27T16:36:47.417Z,29.91
2018-05-27T16:39:15.018Z,29.75
2018-05-27T16:41:42.678Z,29.60
2018-05-27T16:44:10.674Z,29.46
2018-05-27T16:46:39.119Z,29.43
2018-05-27T16:49:07.352Z,29.20
2018-05-27T16:51:35.024Z,29.06
2018-05-27T16:54:02.782Z,29.03
2018-05-27T16:56:30.374Z,28.76
2018-05-27T16:58:57.972Z,28.66
2018-05-27T17:01:25.577Z,28.61
2018-05-27T17:03:53.369Z,28.46
2018-05-27T17:06:21.321Z,28.37
2018-05-27T17:08:49.113Z,28.25
2018-05-27T17:11:16.802Z,28.21
2018-05-27T17:13:44.391Z,28.12
2018-05-27T17:16:12.112Z,27.88
2018-05-27T17:18:39.950Z,27.84
2018-05-27T17:21:07.618Z,27.72
2018-05-27T17:23:35.244Z,27.62
2018-05-27T17:26:02.918Z,27.40
2018-05-27T17:28:30.572Z,27.27
2018-05-27T17:30:58.199Z,27.10
2018-05-27T17:33:25.689Z,26.63
2018-05-27T17:35:53.341Z,26.39
2018-05-27T17:38:20.970Z,26.16
2018-05-27T17:40:48.933Z,25.99
2018-05-27T17:43:16.428Z,25.73
2018-05-27T17:45:44.047Z,25.47
2018-05-27T17:48:12.900Z,25.30
2018-05-27T17:50:40.609Z,25.19
2018-05-27T17:53:08.909Z,24.96
2018-05-27T17:55:36.396Z,24.73
2018-05-27T17:58:04.084Z,24.57
2018-05-27T18:00:31.695Z,24.51
2018-05-27T18:02:59.288Z,24.38
2018-05-27T18:05:26.767Z,24.34
2018-05-27T18:07:54.332Z,24.24
2018-05-27T18:10:22.640Z,24.07
2018-05-27T18:12:49.839Z,23.76
2018-05-27T18:15:17.068Z,23.73
2018-05-27T18:17:44.657Z,23.73
2018-05-27T18:20:12.134Z,23.66
2018-05-27T18:22:39.954Z,23.61
2018-05-27T18:25:07.627Z,23.44
2018-05-27T18:27:35.143Z,23.36
2018-05-27T18:30:03.049Z,23.28
2018-05-27T18:32:30.708Z,23.18
2018-05-27T18:34:57.880Z,23.10
2018-05-27T18:37:24.999Z,22.94
2018-05-27T18:39:52.012Z,22.71
2018-05-27T18:42:19.166Z,22.50
2018-05-27T18:44:46.213Z,22.42
2018-05-27T18:47:13.324Z,22.39
2018-05-27T18:49:40.684Z,22.39
2018-05-27T18:52:07.860Z,22.38
2018-05-27T18:54:34.954Z,22.29
2018-05-27T18:57:02.010Z,22.22
2018-05-27T18:59:29.018Z,22.19
2018-05-27T19:01:56.033Z,22.13
2018-05-27T19:04:23.220Z,22.07
2018-05-27T19:06:50.347Z,21.89
2018-05-27T19:09:17.425Z,21.69
2018-05-27T19:11:44.715Z,21.60
2018-05-27T19:14:11.901Z,21.52
2018-05-27T19:16:38.938Z,21.51
2018-05-27T19:19:06.460Z,21.46
2018-05-27T19:21:33.525Z,21.41
2018-05-27T19:24:00.623Z,21.26
2018-05-27T19:26:27.626Z,21.18
2018-05-27T19:28:54.737Z,21.10
2018-05-27T19:31:21.843Z,21.08
2018-05-27T19:33:48.857Z,20.99
2018-05-27T19:36:15.969Z,20.97
2018-05-27T19:38:42.974Z,20.88
2018-05-27T19:41:10.005Z,20.68
2018-05-27T19:43:37.080Z,20.59
2018-05-27T19:46:04.193Z,20.45
2018-05-27T19:48:31.239Z,20.39
2018-05-27T19:50:58.780Z,20.31
2018-05-27T19:53:26.108Z,20.24
2018-05-27T19:55:53.494Z,20.25
2018-05-27T19:58:20.764Z,20.27
2018-05-27T20:00:47.876Z,20.29
2018-05-27T20:03:15.214Z,20.29
2018-05-27T20:05:42.368Z,20.36
2018-05-27T20:08:09.623Z,20.39
2018-05-27T20:10:37.003Z,20.46
2018-05-27T20:13:04.240Z,20.45
2018-05-27T20:15:31.574Z,20.49
2018-05-27T20:17:58.955Z,20.54
2018-05-27T20:20:26.062Z,20.56
2018-05-27T20:22:53.211Z,20.57
2018-05-27T20:25:20.690Z,20.66
2018-05-27T20:27:48.120Z,20.72
2018-05-27T20:30:15.235Z,20.81
2018-05-27T20:32:42.484Z,20.85
2018-05-27T20:35:09.741Z,20.90
2018-05-27T20:37:36.799Z,20.84
2018-05-27T20:40:03.861Z,20.67
2018-05-27T20:42:31.092Z,20.59
2018-05-27T20:44:58.099Z,20.53
2018-05-27T20:47:25.184Z,20.41
2018-05-27T20:49:52.326Z,20.39
2018-05-27T20:52:19.985Z,20.36
2018-05-27T20:54:46.984Z,20.36
2018-05-27T20:57:13.990Z,20.28
2018-05-27T20:59:41.158Z,20.26
2018-05-27T21:02:08.185Z,20.21
2018-05-27T21:04:35.229Z,20.28
2018-05-27T21:07:02.378Z,20.24
2018-05-27T21:09:29.464Z,20.17
2018-05-27T21:11:56.674Z,20.11
2018-05-27T21:14:23.743Z,20.14
2018-05-27T21:16:50.845Z,20.11
2018-05-27T21:19:17.865Z,20.23
2018-05-27T21:21:44.915Z,20.26
2018-05-27T21:24:12.112Z,20.35
2018-05-27T21:26:39.844Z,20.27
2018-05-27T21:29:06.897Z,20.29
2018-05-27T21:31:33.961Z,20.30
2018-05-27T21:34:01.109Z,20.22
2018-05-27T21:36:28.376Z,20.20
2018-05-27T21:38:55.444Z,20.04
2018-05-27T21:41:22.664Z,19.99
2018-05-27T21:43:49.980Z,19.95
2018-05-27T21:46:17.731Z,19.83
2018-05-27T21:48:44.803Z,19.75
2018-05-27T21:51:12.019Z,19.75
2018-05-27T21:53:39.037Z,19.75
2018-05-27T21:56:06.068Z,19.74
2018-05-27T21:58:33.072Z,19.78
2018-05-27T22:01:00.818Z,19.76
2018-05-27T22:03:27.828Z,19.71
2018-05-27T22:05:54.846Z,19.62
2018-05-27T22:08:21.885Z,19.62
2018-05-27T22:10:48.915Z,19.62
2018-05-27T22:13:15.924Z,19.59
2018-05-27T22:15:43.068Z,19.58
2018-05-27T22:18:10.193Z,19.50
2018-05-27T22:20:37.425Z,19.44
2018-05-27T22:23:04.663Z,19.35
2018-05-27T22:25:31.835Z,19.17
2018-05-27T22:27:58.862Z,19.07
2018-05-27T22:30:26.161Z,18.97
2018-05-27T22:32:53.935Z,18.83
2018-05-27T22:35:20.994Z,18.78
2018-05-27T22:37:48.160Z,18.70
2018-05-27T22:40:15.269Z,18.68
2018-05-27T22:42:42.366Z,18.68
2018-05-27T22:45:09.391Z,18.58
2018-05-27T22:47:36.479Z,18.48
2018-05-27T22:50:03.509Z,18.36
2018-05-27T22:52:30.636Z,18.27
2018-05-27T22:54:57.796Z,18.20
2018-05-27T22:57:24.784Z,18.12
2018-05-27T22:59:51.795Z,18.04
2018-05-27T23:02:18.859Z,17.97
2018-05-27T23:04:46.473Z,17.95
2018-05-27T23:07:13.540Z,17.78
2018-05-27T23:09:40.589Z,17.78
2018-05-27T23:12:07.605Z,17.71
2018-05-27T23:14:34.633Z,17.64
2018-05-27T23:17:01.720Z,17.58
2018-05-27T23:19:28.932Z,17.50
2018-05-27T23:21:56.275Z,17.40
2018-05-27T23:24:23.410Z,17.37
2018-05-27T23:26:50.434Z,17.34
2018-05-27T23:29:17.459Z,17.36
2018-05-27T23:31:44.484Z,17.47
2018-05-27T23:34:11.591Z,17.46
2018-05-27T23:36:38.864Z,17.40
2018-05-27T23:39:06.097Z,17.44
2018-05-27T23:41:33.157Z,17.42
2018-05-27T23:44:00.186Z,17.46
2018-05-27T23:46:27.246Z,17.44
2018-05-27T23:48:54.286Z,17.39
2018-05-27T23:51:21.475Z,17.44
2018-05-27T23:53:48.477Z,17.44
2018-05-27T23:56:15.524Z,17.41
2018-05-27T23:58:42.579Z,17.38
